sensor_id;sensor_type;location;lat;lon;timestamp;temperature;humidity
38428;DHT22;24211;49.980;19.776;2023-05-23T00:00:24;16.90;97.90
38428;DHT22;24211;49.980;19.776;2023-05-23T00:03:12;16.90;98.00
38428;DHT22;24211;49.980;19.776;2023-05-23T00:05:39;16.90;98.10
38428;DHT22;24211;49.980;19.776;2023-05-23T00:08:07;16.80;98.20
38428;DHT22;24211;49.980;19.776;2023-05-23T00:10:34;16.80;98.40
38428;DHT22;24211;49.980;19.776;2023-05-23T00:13:01;16.80;98.40
38428;DHT22;24211;49.980;19.776;2023-05-23T00:15:28;16.70;98.50
38428;DHT22;24211;49.980;19.776;2023-05-23T00:17:56;16.70;98.60
38428;DHT22;24211;49.980;19.776;2023-05-23T00:20:23;16.60;98.70
38428;DHT22;24211;49.980;19.776;2023-05-23T00:22:50;16.60;98.90
38428;DHT22;24211;49.980;19.776;2023-05-23T00:25:18;16.50;99.00
38428;DHT22;24211;49.980;19.776;2023-05-23T00:27:48;16.50;99.20
38428;DHT22;24211;49.980;19.776;2023-05-23T00:30:15;16.40;99.20
38428;DHT22;24211;49.980;19.776;2023-05-23T00:32:44;16.40;99.40
38428;DHT22;24211;49.980;19.776;2023-05-23T00:35:11;16.40;99.70
38428;DHT22;24211;49.980;19.776;2023-05-23T00:37:38;16.30;99.80
38428;DHT22;24211;49.980;19.776;2023-05-23T00:40:06;16.20;99.90
38428;DHT22;24211;49.980;19.776;2023-05-23T00:42:34;16.20;99.90
38428;DHT22;24211;49.980;19.776;2023-05-23T00:45:01;16.20;99.90
38428;DHT22;24211;49.980;19.776;2023-05-23T00:47:29;16.10;99.90
38428;DHT22;24211;49.980;19.776;2023-05-23T00:49:56;16.10;99.90
38428;DHT22;24211;49.980;19.776;2023-05-23T00:52:23;16.10;99.90
38428;DHT22;24211;49.980;19.776;2023-05-23T00:54:51;16.00;99.90
38428;DHT22;24211;49.980;19.776;2023-05-23T00:57:18;16.00;99.90
38428;DHT22;24211;49.980;19.776;2023-05-23T00:59:46;16.00;99.90
38428;DHT22;24211;49.980;19.776;2023-05-23T01:02:14;15.90;99.90
38428;DHT22;24211;49.980;19.776;2023-05-23T01:04:42;15.90;99.90
38428;DHT22;24211;49.980;19.776;2023-05-23T01:07:10;15.80;99.90
38428;DHT22;24211;49.980;19.776;2023-05-23T01:09:38;15.80;99.90
38428;DHT22;24211;49.980;19.776;2023-05-23T01:12:24;15.70;99.90
38428;DHT22;24211;49.980;19.776;2023-05-23T01:15:06;15.70;99.90
38428;DHT22;24211;49.980;19.776;2023-05-23T01:20:40;15.60;99.90
38428;DHT22;24211;49.980;19.776;2023-05-23T01:23:28;15.60;99.90
38428;DHT22;24211;49.980;19.776;2023-05-23T01:26:45;15.50;99.90
38428;DHT22;24211;49.980;19.776;2023-05-23T01:29:28;15.50;99.90
38428;DHT22;24211;49.980;19.776;2023-05-23T01:32:04;15.40;99.90
38428;DHT22;24211;49.980;19.776;2023-05-23T01:34:36;15.40;99.90
38428;DHT22;24211;49.980;19.776;2023-05-23T01:37:09;15.30;99.90
38428;DHT22;24211;49.980;19.776;2023-05-23T01:39:41;15.30;99.90
38428;DHT22;24211;49.980;19.776;2023-05-23T01:42:08;15.30;99.90
38428;DHT22;24211;49.980;19.776;2023-05-23T01:44:36;15.20;99.90
38428;DHT22;24211;49.980;19.776;2023-05-23T01:47:07;15.20;99.90
38428;DHT22;24211;49.980;19.776;2023-05-23T01:49:36;15.20;99.90
38428;DHT22;24211;49.980;19.776;2023-05-23T01:52:05;15.20;99.90
38428;DHT22;24211;49.980;19.776;2023-05-23T01:54:37;15.10;99.90
38428;DHT22;24211;49.980;19.776;2023-05-23T01:57:09;15.10;99.90
38428;DHT22;24211;49.980;19.776;2023-05-23T01:59:37;15.00;99.90
38428;DHT22;24211;49.980;19.776;2023-05-23T02:02:05;15.00;99.90
38428;DHT22;24211;49.980;19.776;2023-05-23T02:04:33;14.90;99.90
38428;DHT22;24211;49.980;19.776;2023-05-23T02:07:02;14.90;99.90
38428;DHT22;24211;49.980;19.776;2023-05-23T02:09:30;14.90;99.90
38428;DHT22;24211;49.980;19.776;2023-05-23T02:11:57;14.80;99.90
38428;DHT22;24211;49.980;19.776;2023-05-23T02:14:25;14.80;99.90
38428;DHT22;24211;49.980;19.776;2023-05-23T02:16:54;14.80;99.90
38428;DHT22;24211;49.980;19.776;2023-05-23T02:19:21;14.80;99.90
38428;DHT22;24211;49.980;19.776;2023-05-23T02:21:48;14.70;99.90
38428;DHT22;24211;49.980;19.776;2023-05-23T02:24:17;14.70;99.90
38428;DHT22;24211;49.980;19.776;2023-05-23T02:26:44;14.60;99.90
38428;DHT22;24211;49.980;19.776;2023-05-23T02:29:11;14.60;99.90
38428;DHT22;24211;49.980;19.776;2023-05-23T02:31:39;14.60;99.90
38428;DHT22;24211;49.980;19.776;2023-05-23T02:34:06;14.50;99.90
38428;DHT22;24211;49.980;19.776;2023-05-23T02:36:33;14.50;99.90
38428;DHT22;24211;49.980;19.776;2023-05-23T02:39:04;14.40;99.90
38428;DHT22;24211;49.980;19.776;2023-05-23T02:41:32;14.40;99.90
38428;DHT22;24211;49.980;19.776;2023-05-23T02:44:00;14.40;99.90
38428;DHT22;24211;49.980;19.776;2023-05-23T02:46:27;14.30;99.90
38428;DHT22;24211;49.980;19.776;2023-05-23T02:48:54;14.30;99.90
38428;DHT22;24211;49.980;19.776;2023-05-23T02:51:21;14.30;99.90
38428;DHT22;24211;49.980;19.776;2023-05-23T02:53:49;14.30;99.90
38428;DHT22;24211;49.980;19.776;2023-05-23T02:56:16;14.20;99.90
38428;DHT22;24211;49.980;19.776;2023-05-23T02:58:44;14.20;99.90
38428;DHT22;24211;49.980;19.776;2023-05-23T03:01:12;14.10;99.90
38428;DHT22;24211;49.980;19.776;2023-05-23T03:03:39;14.10;99.90
38428;DHT22;24211;49.980;19.776;2023-05-23T03:06:07;14.10;99.90
38428;DHT22;24211;49.980;19.776;2023-05-23T03:08:36;14.00;99.90
38428;DHT22;24211;49.980;19.776;2023-05-23T03:11:03;14.00;99.90
38428;DHT22;24211;49.980;19.776;2023-05-23T03:13:31;14.00;99.90
38428;DHT22;24211;49.980;19.776;2023-05-23T03:15:58;13.90;99.90
38428;DHT22;24211;49.980;19.776;2023-05-23T03:18:25;13.90;99.90
38428;DHT22;24211;49.980;19.776;2023-05-23T03:20:52;13.90;99.90
38428;DHT22;24211;49.980;19.776;2023-05-23T03:23:22;13.90;99.90
38428;DHT22;24211;49.980;19.776;2023-05-23T03:25:49;13.90;99.90
38428;DHT22;24211;49.980;19.776;2023-05-23T03:28:16;13.90;99.90
38428;DHT22;24211;49.980;19.776;2023-05-23T03:30:44;13.90;99.90
38428;DHT22;24211;49.980;19.776;2023-05-23T03:33:11;13.90;99.90
38428;DHT22;24211;49.980;19.776;2023-05-23T03:35:38;13.90;99.90
38428;DHT22;24211;49.980;19.776;2023-05-23T03:38:06;13.90;99.90
38428;DHT22;24211;49.980;19.776;2023-05-23T03:40:33;13.90;99.90
38428;DHT22;24211;49.980;19.776;2023-05-23T03:43:04;13.90;99.90
38428;DHT22;24211;49.980;19.776;2023-05-23T03:45:35;13.90;99.90
38428;DHT22;24211;49.980;19.776;2023-05-23T03:48:09;13.90;99.90
38428;DHT22;24211;49.980;19.776;2023-05-23T03:50:39;14.00;99.90
38428;DHT22;24211;49.980;19.776;2023-05-23T03:53:07;14.00;99.90
38428;DHT22;24211;49.980;19.776;2023-05-23T03:55:35;14.00;99.90
38428;DHT22;24211;49.980;19.776;2023-05-23T03:58:02;14.10;99.90
38428;DHT22;24211;49.980;19.776;2023-05-23T04:00:29;14.10;99.90
38428;DHT22;24211;49.980;19.776;2023-05-23T04:02:58;14.20;99.90
38428;DHT22;24211;49.980;19.776;2023-05-23T04:05:28;14.30;99.90
38428;DHT22;24211;49.980;19.776;2023-05-23T04:07:57;14.40;99.90
38428;DHT22;24211;49.980;19.776;2023-05-23T04:10:28;14.50;99.90
38428;DHT22;24211;49.980;19.776;2023-05-23T04:12:57;14.50;99.90
38428;DHT22;24211;49.980;19.776;2023-05-23T04:15:24;14.60;99.90
38428;DHT22;24211;49.980;19.776;2023-05-23T04:17:56;14.70;99.90
38428;DHT22;24211;49.980;19.776;2023-05-23T04:20:25;14.90;99.90
38428;DHT22;24211;49.980;19.776;2023-05-23T04:22:53;14.90;99.90
38428;DHT22;24211;49.980;19.776;2023-05-23T04:25:20;15.00;99.90
38428;DHT22;24211;49.980;19.776;2023-05-23T04:28:02;15.10;99.90
38428;DHT22;24211;49.980;19.776;2023-05-23T04:30:32;15.30;99.90
38428;DHT22;24211;49.980;19.776;2023-05-23T04:32:59;15.40;99.90
38428;DHT22;24211;49.980;19.776;2023-05-23T05:02:24;17.30;99.90
38428;DHT22;24211;49.980;19.776;2023-05-23T08:03:09;29.70;93.50
38428;DHT22;24211;49.980;19.776;2023-05-23T08:05:48;30.00;92.20
38428;DHT22;24211;49.980;19.776;2023-05-23T08:13:33;30.40;92.30
38428;DHT22;24211;49.980;19.776;2023-05-23T08:16:20;30.80;91.30
38428;DHT22;24211;49.980;19.776;2023-05-23T08:18:48;30.60;91.30
38428;DHT22;24211;49.980;19.776;2023-05-23T08:21:16;30.60;91.60
38428;DHT22;24211;49.980;19.776;2023-05-23T08:23:43;30.70;91.10
38428;DHT22;24211;49.980;19.776;2023-05-23T08:26:10;30.70;91.00
38428;DHT22;24211;49.980;19.776;2023-05-23T08:28:38;30.80;90.70
38428;DHT22;24211;49.980;19.776;2023-05-23T08:31:06;31.20;91.00
38428;DHT22;24211;49.980;19.776;2023-05-23T08:33:33;31.40;91.00
38428;DHT22;24211;49.980;19.776;2023-05-23T08:41:42;31.90;90.60
38428;DHT22;24211;49.980;19.776;2023-05-23T08:59:56;32.30;89.60
38428;DHT22;24211;49.980;19.776;2023-05-23T09:03:54;32.40;88.00
38428;DHT22;24211;49.980;19.776;2023-05-23T09:06:40;32.40;87.20
38428;DHT22;24211;49.980;19.776;2023-05-23T09:09:08;32.60;86.30
38428;DHT22;24211;49.980;19.776;2023-05-23T09:11:36;32.80;86.50
38428;DHT22;24211;49.980;19.776;2023-05-23T09:14:07;32.80;86.80
38428;DHT22;24211;49.980;19.776;2023-05-23T09:16:37;33.00;86.80
38428;DHT22;24211;49.980;19.776;2023-05-23T09:19:12;32.90;86.00
38428;DHT22;24211;49.980;19.776;2023-05-23T09:21:46;32.90;86.30
38428;DHT22;24211;49.980;19.776;2023-05-23T09:24:33;33.10;85.30
38428;DHT22;24211;49.980;19.776;2023-05-23T09:27:04;33.20;84.40
38428;DHT22;24211;49.980;19.776;2023-05-23T09:29:36;33.30;84.10
38428;DHT22;24211;49.980;19.776;2023-05-23T09:32:13;33.60;83.40
38428;DHT22;24211;49.980;19.776;2023-05-23T09:34:54;33.70;83.00
38428;DHT22;24211;49.980;19.776;2023-05-23T09:37:43;33.70;83.00
38428;DHT22;24211;49.980;19.776;2023-05-23T09:40:15;33.70;83.90
38428;DHT22;24211;49.980;19.776;2023-05-23T09:42:50;33.70;82.50
38428;DHT22;24211;49.980;19.776;2023-05-23T09:45:17;33.70;82.10
38428;DHT22;24211;49.980;19.776;2023-05-23T09:47:51;33.80;83.30
38428;DHT22;24211;49.980;19.776;2023-05-23T09:50:20;33.90;83.40
38428;DHT22;24211;49.980;19.776;2023-05-23T09:52:48;33.90;83.30
38428;DHT22;24211;49.980;19.776;2023-05-23T09:55:17;33.80;83.00
38428;DHT22;24211;49.980;19.776;2023-05-23T09:57:44;34.00;82.20
38428;DHT22;24211;49.980;19.776;2023-05-23T10:00:19;34.00;83.20
38428;DHT22;24211;49.980;19.776;2023-05-23T10:24:06;35.70;79.90
38428;DHT22;24211;49.980;19.776;2023-05-23T10:26:34;35.40;77.40
38428;DHT22;24211;49.980;19.776;2023-05-23T10:29:02;35.70;75.80
38428;DHT22;24211;49.980;19.776;2023-05-23T10:31:31;36.00;77.60
38428;DHT22;24211;49.980;19.776;2023-05-23T10:34:16;36.10;77.80
38428;DHT22;24211;49.980;19.776;2023-05-23T10:36:58;36.00;77.20
38428;DHT22;24211;49.980;19.776;2023-05-23T10:39:56;36.00;77.60
38428;DHT22;24211;49.980;19.776;2023-05-23T10:45:41;35.90;75.70
38428;DHT22;24211;49.980;19.776;2023-05-23T10:48:20;35.80;75.30
38428;DHT22;24211;49.980;19.776;2023-05-23T10:51:02;35.80;76.40
38428;DHT22;24211;49.980;19.776;2023-05-23T10:53:35;35.80;74.90
38428;DHT22;24211;49.980;19.776;2023-05-23T10:56:05;35.80;75.60
38428;DHT22;24211;49.980;19.776;2023-05-23T10:58:35;36.00;76.10
38428;DHT22;24211;49.980;19.776;2023-05-23T11:01:12;36.10;75.70
38428;DHT22;24211;49.980;19.776;2023-05-23T11:06:39;36.30;75.20
38428;DHT22;24211;49.980;19.776;2023-05-23T11:09:16;36.60;74.30
38428;DHT22;24211;49.980;19.776;2023-05-23T11:17:28;36.50;74.80
38428;DHT22;24211;49.980;19.776;2023-05-23T11:20:05;36.50;74.00
38428;DHT22;24211;49.980;19.776;2023-05-23T11:22:35;36.50;74.60
38428;DHT22;24211;49.980;19.776;2023-05-23T11:25:07;36.60;74.20
38428;DHT22;24211;49.980;19.776;2023-05-23T11:27:38;36.60;73.70
38428;DHT22;24211;49.980;19.776;2023-05-23T11:35:59;37.10;72.50
38428;DHT22;24211;49.980;19.776;2023-05-23T11:38:28;37.00;72.00
38428;DHT22;24211;49.980;19.776;2023-05-23T11:40:55;36.70;67.90
38428;DHT22;24211;49.980;19.776;2023-05-23T11:43:22;36.70;71.20
38428;DHT22;24211;49.980;19.776;2023-05-23T11:45:50;36.80;71.30
38428;DHT22;24211;49.980;19.776;2023-05-23T11:48:17;36.80;71.50
38428;DHT22;24211;49.980;19.776;2023-05-23T11:50:49;36.80;71.40
38428;DHT22;24211;49.980;19.776;2023-05-23T11:53:21;36.50;71.20
38428;DHT22;24211;49.980;19.776;2023-05-23T11:55:53;36.60;71.70
38428;DHT22;24211;49.980;19.776;2023-05-23T11:58:29;36.50;71.30
38428;DHT22;24211;49.980;19.776;2023-05-23T12:01:04;36.40;72.30
38428;DHT22;24211;49.980;19.776;2023-05-23T12:03:33;36.60;72.00
38428;DHT22;24211;49.980;19.776;2023-05-23T12:06:13;36.70;71.80
38428;DHT22;24211;49.980;19.776;2023-05-23T12:08:41;37.00;72.30
38428;DHT22;24211;49.980;19.776;2023-05-23T12:11:09;37.10;71.90
38428;DHT22;24211;49.980;19.776;2023-05-23T12:13:40;37.00;71.30
38428;DHT22;24211;49.980;19.776;2023-05-23T12:16:08;36.80;71.50
38428;DHT22;24211;49.980;19.776;2023-05-23T12:18:36;36.80;72.10
38428;DHT22;24211;49.980;19.776;2023-05-23T12:21:05;36.90;72.30
38428;DHT22;24211;49.980;19.776;2023-05-23T12:23:34;37.00;72.60
38428;DHT22;24211;49.980;19.776;2023-05-23T12:26:05;37.10;72.50
38428;DHT22;24211;49.980;19.776;2023-05-23T12:28:42;37.10;72.40
38428;DHT22;24211;49.980;19.776;2023-05-23T12:31:16;37.00;72.20
38428;DHT22;24211;49.980;19.776;2023-05-23T12:33:46;36.90;71.70
38428;DHT22;24211;49.980;19.776;2023-05-23T12:36:24;36.80;71.80
38428;DHT22;24211;49.980;19.776;2023-05-23T12:39:01;36.90;72.00
38428;DHT22;24211;49.980;19.776;2023-05-23T12:41:30;37.00;68.00
38428;DHT22;24211;49.980;19.776;2023-05-23T12:43:59;37.10;72.10
38428;DHT22;24211;49.980;19.776;2023-05-23T12:46:28;37.30;71.60
38428;DHT22;24211;49.980;19.776;2023-05-23T12:48:55;37.70;72.40
38428;DHT22;24211;49.980;19.776;2023-05-23T12:51:22;37.80;72.30
38428;DHT22;24211;49.980;19.776;2023-05-23T12:53:50;37.80;72.40
38428;DHT22;24211;49.980;19.776;2023-05-23T12:56:17;37.80;72.40
38428;DHT22;24211;49.980;19.776;2023-05-23T12:58:47;37.70;71.80
38428;DHT22;24211;49.980;19.776;2023-05-23T13:01:14;37.70;71.40
38428;DHT22;24211;49.980;19.776;2023-05-23T13:03:42;37.90;71.90
38428;DHT22;24211;49.980;19.776;2023-05-23T13:06:09;37.80;72.10
38428;DHT22;24211;49.980;19.776;2023-05-23T13:08:37;37.60;72.20
38428;DHT22;24211;49.980;19.776;2023-05-23T13:11:04;37.50;72.50
38428;DHT22;24211;49.980;19.776;2023-05-23T13:13:31;37.30;72.40
38428;DHT22;24211;49.980;19.776;2023-05-23T13:15:59;37.20;72.60
38428;DHT22;24211;49.980;19.776;2023-05-23T13:18:29;37.20;72.50
38428;DHT22;24211;49.980;19.776;2023-05-23T13:20:57;37.10;72.50
38428;DHT22;24211;49.980;19.776;2023-05-23T13:23:24;37.00;72.50
38428;DHT22;24211;49.980;19.776;2023-05-23T13:25:51;37.00;72.60
38428;DHT22;24211;49.980;19.776;2023-05-23T13:28:19;37.00;72.60
38428;DHT22;24211;49.980;19.776;2023-05-23T13:30:46;37.00;72.80
38428;DHT22;24211;49.980;19.776;2023-05-23T13:33:14;36.80;72.60
38428;DHT22;24211;49.980;19.776;2023-05-23T13:35:41;36.70;72.60
38428;DHT22;24211;49.980;19.776;2023-05-23T13:38:09;36.70;72.60
38428;DHT22;24211;49.980;19.776;2023-05-23T13:40:36;36.80;71.40
38428;DHT22;24211;49.980;19.776;2023-05-23T13:43:03;36.90;71.70
38428;DHT22;24211;49.980;19.776;2023-05-23T13:45:30;36.70;71.70
38428;DHT22;24211;49.980;19.776;2023-05-23T13:47:59;36.70;71.80
38428;DHT22;24211;49.980;19.776;2023-05-23T13:50:28;36.50;72.50
38428;DHT22;24211;49.980;19.776;2023-05-23T13:52:55;36.30;72.40
38428;DHT22;24211;49.980;19.776;2023-05-23T13:55:22;36.20;72.60
38428;DHT22;24211;49.980;19.776;2023-05-23T13:57:50;36.10;72.80
38428;DHT22;24211;49.980;19.776;2023-05-23T14:00:17;35.90;72.90
38428;DHT22;24211;49.980;19.776;2023-05-23T14:02:44;35.80;73.10
38428;DHT22;24211;49.980;19.776;2023-05-23T14:05:12;35.70;73.20
38428;DHT22;24211;49.980;19.776;2023-05-23T14:07:39;35.50;73.30
38428;DHT22;24211;49.980;19.776;2023-05-23T14:10:07;35.50;72.30
38428;DHT22;24211;49.980;19.776;2023-05-23T14:12:35;35.30;71.50
38428;DHT22;24211;49.980;19.776;2023-05-23T14:15:02;34.50;72.60
38428;DHT22;24211;49.980;19.776;2023-05-23T14:17:30;34.00;73.60
38428;DHT22;24211;49.980;19.776;2023-05-23T14:19:57;32.70;75.40
38428;DHT22;24211;49.980;19.776;2023-05-23T14:22:24;31.90;76.60
38428;DHT22;24211;49.980;19.776;2023-05-23T14:24:52;31.80;77.20
38428;DHT22;24211;49.980;19.776;2023-05-23T14:27:19;31.10;78.20
38428;DHT22;24211;49.980;19.776;2023-05-23T14:29:46;30.60;79.20
38428;DHT22;24211;49.980;19.776;2023-05-23T14:32:14;30.50;79.80
38428;DHT22;24211;49.980;19.776;2023-05-23T14:34:42;30.20;80.10
38428;DHT22;24211;49.980;19.776;2023-05-23T14:37:09;29.70;81.50
38428;DHT22;24211;49.980;19.776;2023-05-23T14:39:36;29.30;82.30
38428;DHT22;24211;49.980;19.776;2023-05-23T14:42:04;29.10;82.90
38428;DHT22;24211;49.980;19.776;2023-05-23T14:44:31;29.10;83.00
38428;DHT22;24211;49.980;19.776;2023-05-23T14:46:58;28.90;83.40
38428;DHT22;24211;49.980;19.776;2023-05-23T14:49:26;28.70;83.80
38428;DHT22;24211;49.980;19.776;2023-05-23T14:51:54;28.60;84.10
38428;DHT22;24211;49.980;19.776;2023-05-23T14:54:21;28.70;84.70
38428;DHT22;24211;49.980;19.776;2023-05-23T14:56:48;28.40;84.50
38428;DHT22;24211;49.980;19.776;2023-05-23T14:59:19;28.40;85.30
38428;DHT22;24211;49.980;19.776;2023-05-23T15:01:46;28.30;86.60
38428;DHT22;24211;49.980;19.776;2023-05-23T15:04:13;28.30;88.30
38428;DHT22;24211;49.980;19.776;2023-05-23T15:06:41;28.10;90.30
38428;DHT22;24211;49.980;19.776;2023-05-23T15:09:08;27.90;90.90
38428;DHT22;24211;49.980;19.776;2023-05-23T15:11:36;28.00;91.50
38428;DHT22;24211;49.980;19.776;2023-05-23T15:14:05;28.10;91.40
38428;DHT22;24211;49.980;19.776;2023-05-23T15:16:33;28.30;91.20
38428;DHT22;24211;49.980;19.776;2023-05-23T15:19:03;28.40;91.20
38428;DHT22;24211;49.980;19.776;2023-05-23T15:21:32;28.40;91.10
38428;DHT22;24211;49.980;19.776;2023-05-23T15:23:59;28.50;91.00
38428;DHT22;24211;49.980;19.776;2023-05-23T15:26:27;28.60;90.80
38428;DHT22;24211;49.980;19.776;2023-05-23T15:28:55;28.70;90.80
38428;DHT22;24211;49.980;19.776;2023-05-23T15:31:22;28.90;90.50
38428;DHT22;24211;49.980;19.776;2023-05-23T15:33:49;29.00;90.30
38428;DHT22;24211;49.980;19.776;2023-05-23T15:36:17;29.00;90.30
38428;DHT22;24211;49.980;19.776;2023-05-23T15:38:44;29.10;90.30
38428;DHT22;24211;49.980;19.776;2023-05-23T15:41:11;29.10;90.30
38428;DHT22;24211;49.980;19.776;2023-05-23T15:43:38;29.10;90.30
38428;DHT22;24211;49.980;19.776;2023-05-23T15:46:05;29.10;90.30
38428;DHT22;24211;49.980;19.776;2023-05-23T15:48:33;29.10;90.40
38428;DHT22;24211;49.980;19.776;2023-05-23T15:51:01;29.10;90.50
38428;DHT22;24211;49.980;19.776;2023-05-23T15:53:29;29.00;90.50
38428;DHT22;24211;49.980;19.776;2023-05-23T15:56:03;29.00;90.60
38428;DHT22;24211;49.980;19.776;2023-05-23T15:58:30;28.90;90.70
38428;DHT22;24211;49.980;19.776;2023-05-23T16:00:58;28.90;90.70
38428;DHT22;24211;49.980;19.776;2023-05-23T16:03:27;28.80;90.80
38428;DHT22;24211;49.980;19.776;2023-05-23T16:05:55;28.80;90.80
38428;DHT22;24211;49.980;19.776;2023-05-23T16:08:22;28.70;90.90
38428;DHT22;24211;49.980;19.776;2023-05-23T16:10:49;28.70;90.90
38428;DHT22;24211;49.980;19.776;2023-05-23T16:13:16;28.60;91.00
38428;DHT22;24211;49.980;19.776;2023-05-23T16:15:44;28.60;91.00
38428;DHT22;24211;49.980;19.776;2023-05-23T16:18:13;28.50;91.00
38428;DHT22;24211;49.980;19.776;2023-05-23T16:20:40;28.50;91.10
38428;DHT22;24211;49.980;19.776;2023-05-23T16:23:07;28.40;91.20
38428;DHT22;24211;49.980;19.776;2023-05-23T16:25:36;28.30;91.20
38428;DHT22;24211;49.980;19.776;2023-05-23T16:28:03;28.20;91.20
38428;DHT22;24211;49.980;19.776;2023-05-23T16:30:31;28.20;91.30
38428;DHT22;24211;49.980;19.776;2023-05-23T16:32:58;28.20;91.40
38428;DHT22;24211;49.980;19.776;2023-05-23T16:35:29;28.10;91.50
38428;DHT22;24211;49.980;19.776;2023-05-23T16:37:56;28.10;91.60
38428;DHT22;24211;49.980;19.776;2023-05-23T16:40:23;28.00;91.80
38428;DHT22;24211;49.980;19.776;2023-05-23T16:42:50;28.00;91.60
38428;DHT22;24211;49.980;19.776;2023-05-23T16:45:18;27.90;91.70
38428;DHT22;24211;49.980;19.776;2023-05-23T16:47:45;27.90;91.80
38428;DHT22;24211;49.980;19.776;2023-05-23T16:50:13;27.80;91.80
38428;DHT22;24211;49.980;19.776;2023-05-23T16:52:40;27.80;91.90
38428;DHT22;24211;49.980;19.776;2023-05-23T16:55:08;27.70;91.90
38428;DHT22;24211;49.980;19.776;2023-05-23T16:57:36;27.70;92.00
38428;DHT22;24211;49.980;19.776;2023-05-23T17:00:05;27.70;92.00
38428;DHT22;24211;49.980;19.776;2023-05-23T17:02:33;27.60;92.10
38428;DHT22;24211;49.980;19.776;2023-05-23T17:05:01;27.60;92.10
38428;DHT22;24211;49.980;19.776;2023-05-23T17:07:29;27.50;92.20
38428;DHT22;24211;49.980;19.776;2023-05-23T17:09:57;27.50;92.30
38428;DHT22;24211;49.980;19.776;2023-05-23T17:12:24;27.40;92.30
38428;DHT22;24211;49.980;19.776;2023-05-23T17:14:52;27.40;92.40
38428;DHT22;24211;49.980;19.776;2023-05-23T17:17:19;27.30;92.40
38428;DHT22;24211;49.980;19.776;2023-05-23T17:19:47;27.30;92.50
38428;DHT22;24211;49.980;19.776;2023-05-23T17:22:14;27.30;92.50
38428;DHT22;24211;49.980;19.776;2023-05-23T17:24:41;27.20;92.60
38428;DHT22;24211;49.980;19.776;2023-05-23T17:27:09;27.10;92.60
38428;DHT22;24211;49.980;19.776;2023-05-23T17:29:37;27.10;92.70
38428;DHT22;24211;49.980;19.776;2023-05-23T17:32:05;27.00;92.70
38428;DHT22;24211;49.980;19.776;2023-05-23T17:34:33;27.00;92.80
38428;DHT22;24211;49.980;19.776;2023-05-23T17:37:05;26.90;92.90
38428;DHT22;24211;49.980;19.776;2023-05-23T17:39:33;26.90;93.00
38428;DHT22;24211;49.980;19.776;2023-05-23T17:42:02;26.90;93.10
38428;DHT22;24211;49.980;19.776;2023-05-23T17:44:31;26.80;93.10
38428;DHT22;24211;49.980;19.776;2023-05-23T17:46:58;26.70;93.20
38428;DHT22;24211;49.980;19.776;2023-05-23T17:49:26;26.70;93.20
38428;DHT22;24211;49.980;19.776;2023-05-23T17:51:53;26.60;93.30
38428;DHT22;24211;49.980;19.776;2023-05-23T17:54:21;26.50;93.40
38428;DHT22;24211;49.980;19.776;2023-05-23T17:56:48;26.50;93.50
38428;DHT22;24211;49.980;19.776;2023-05-23T17:59:15;26.40;93.60
38428;DHT22;24211;49.980;19.776;2023-05-23T18:01:43;26.30;93.70
38428;DHT22;24211;49.980;19.776;2023-05-23T18:04:11;26.30;93.80
38428;DHT22;24211;49.980;19.776;2023-05-23T18:06:38;26.20;93.80
38428;DHT22;24211;49.980;19.776;2023-05-23T18:09:06;26.20;94.00
38428;DHT22;24211;49.980;19.776;2023-05-23T18:11:34;26.10;94.00
38428;DHT22;24211;49.980;19.776;2023-05-23T18:14:02;26.00;94.10
38428;DHT22;24211;49.980;19.776;2023-05-23T18:16:29;26.00;94.10
38428;DHT22;24211;49.980;19.776;2023-05-23T18:18:58;25.90;94.20
38428;DHT22;24211;49.980;19.776;2023-05-23T18:21:25;25.90;94.30
38428;DHT22;24211;49.980;19.776;2023-05-23T18:23:53;25.80;94.30
38428;DHT22;24211;49.980;19.776;2023-05-23T18:26:20;25.80;94.40
38428;DHT22;24211;49.980;19.776;2023-05-23T18:28:49;25.70;94.50
38428;DHT22;24211;49.980;19.776;2023-05-23T18:31:16;25.70;94.60
38428;DHT22;24211;49.980;19.776;2023-05-23T18:33:44;25.60;94.70
38428;DHT22;24211;49.980;19.776;2023-05-23T18:36:11;25.50;94.80
38428;DHT22;24211;49.980;19.776;2023-05-23T18:38:38;25.40;94.90
38428;DHT22;24211;49.980;19.776;2023-05-23T18:41:08;25.40;95.00
38428;DHT22;24211;49.980;19.776;2023-05-23T18:43:41;25.40;95.10
38428;DHT22;24211;49.980;19.776;2023-05-23T18:46:08;25.30;95.20
38428;DHT22;24211;49.980;19.776;2023-05-23T18:48:36;25.20;95.20
38428;DHT22;24211;49.980;19.776;2023-05-23T18:51:03;25.20;95.30
38428;DHT22;24211;49.980;19.776;2023-05-23T18:53:31;25.20;95.40
38428;DHT22;24211;49.980;19.776;2023-05-23T18:55:58;25.10;95.50
38428;DHT22;24211;49.980;19.776;2023-05-23T18:58:27;25.00;95.50
38428;DHT22;24211;49.980;19.776;2023-05-23T19:00:54;25.00;95.60
38428;DHT22;24211;49.980;19.776;2023-05-23T19:03:22;24.90;96.00
38428;DHT22;24211;49.980;19.776;2023-05-23T19:05:49;24.90;95.80
38428;DHT22;24211;49.980;19.776;2023-05-23T19:08:16;24.90;95.90
38428;DHT22;24211;49.980;19.776;2023-05-23T19:10:44;24.80;96.00
38428;DHT22;24211;49.980;19.776;2023-05-23T19:13:11;24.70;96.10
38428;DHT22;24211;49.980;19.776;2023-05-23T19:15:39;24.70;96.10
38428;DHT22;24211;49.980;19.776;2023-05-23T19:18:07;24.60;96.20
38428;DHT22;24211;49.980;19.776;2023-05-23T19:20:35;24.60;96.30
38428;DHT22;24211;49.980;19.776;2023-05-23T19:23:02;24.60;96.40
38428;DHT22;24211;49.980;19.776;2023-05-23T19:25:29;24.60;96.50
38428;DHT22;24211;49.980;19.776;2023-05-23T19:27:57;24.50;96.80
38428;DHT22;24211;49.980;19.776;2023-05-23T19:30:24;24.50;96.70
38428;DHT22;24211;49.980;19.776;2023-05-23T19:32:52;24.40;96.80
38428;DHT22;24211;49.980;19.776;2023-05-23T19:35:45;24.30;96.80
38428;DHT22;24211;49.980;19.776;2023-05-23T19:38:35;24.30;97.00
38428;DHT22;24211;49.980;19.776;2023-05-23T19:41:11;24.30;97.10
38428;DHT22;24211;49.980;19.776;2023-05-23T19:43:40;24.20;97.30
38428;DHT22;24211;49.980;19.776;2023-05-23T19:46:07;24.10;97.30
38428;DHT22;24211;49.980;19.776;2023-05-23T19:48:36;24.10;97.70
38428;DHT22;24211;49.980;19.776;2023-05-23T19:51:03;24.00;97.50
38428;DHT22;24211;49.980;19.776;2023-05-23T19:53:39;24.00;97.70
38428;DHT22;24211;49.980;19.776;2023-05-23T19:57:46;24.00;97.80
38428;DHT22;24211;49.980;19.776;2023-05-23T20:00:18;23.90;98.00
38428;DHT22;24211;49.980;19.776;2023-05-23T20:06:40;23.80;98.20
38428;DHT22;24211;49.980;19.776;2023-05-23T20:09:07;23.80;98.40